createdAt,value
2023-04-09T00:01:26.347Z,7.44
2023-04-09T00:04:52.853Z,7.44
2023-04-09T00:08:19.798Z,7.45
2023-04-09T00:11:46.407Z,7.45
2023-04-09T00:15:30.029Z,7.46
2023-04-09T00:19:03.025Z,7.46
2023-04-09T00:22:29.833Z,7.43
2023-04-09T00:25:56.747Z,7.44
2023-04-09T00:29:23.524Z,7.49
2023-04-09T00:32:50.303Z,7.51
2023-04-09T00:36:17.283Z,7.51
2023-04-09T00:39:43.856Z,7.52
2023-04-09T00:43:10.103Z,7.48
2023-04-09T00:46:36.747Z,7.44
2023-04-09T00:50:04.521Z,7.47
2023-04-09T00:53:32.301Z,7.52
2023-04-09T00:56:58.991Z,7.54
2023-04-09T01:00:25.906Z,7.54
2023-04-09T01:03:53.283Z,7.51
2023-04-09T01:07:27.562Z,7.49
2023-04-09T01:11:01.242Z,7.44
2023-04-09T01:14:36.591Z,7.37
2023-04-09T01:18:11.822Z,7.32
2023-04-09T01:21:40.563Z,7.30
2023-04-09T01:25:21.251Z,7.29
2023-04-09T01:28:50.553Z,7.31
2023-04-09T01:32:20.858Z,7.36
2023-04-09T01:35:49.926Z,7.43
2023-04-09T01:39:17.523Z,7.49
2023-04-09T01:42:44.746Z,7.50
2023-04-09T01:46:12.440Z,7.49
2023-04-09T01:49:39.969Z,7.50
2023-04-09T01:53:07.297Z,7.48
2023-04-09T01:56:44.479Z,7.46
2023-04-09T02:00:14.771Z,7.42
2023-04-09T02:03:48.724Z,7.28
2023-04-09T02:07:39.741Z,7.20
2023-04-09T02:11:11.390Z,7.09
2023-04-09T02:14:39.595Z,7.00
2023-04-09T02:18:06.579Z,6.93
2023-04-09T02:21:33.395Z,6.82
2023-04-09T02:25:00.208Z,6.74
2023-04-09T02:28:26.880Z,6.67
2023-04-09T02:31:53.778Z,6.64
2023-04-09T02:35:20.973Z,6.66
2023-04-09T02:38:47.454Z,6.65
2023-04-09T02:42:14.141Z,6.65
2023-04-09T02:45:40.871Z,6.68
2023-04-09T02:49:07.528Z,6.72
2023-04-09T02:52:34.311Z,6.73
2023-04-09T02:56:01.092Z,6.77
2023-04-09T02:59:29.161Z,6.83
2023-04-09T03:02:56.325Z,6.90
2023-04-09T03:06:23.167Z,6.93
2023-04-09T03:09:49.809Z,6.95
2023-04-09T03:13:16.967Z,6.92
2023-04-09T03:16:43.510Z,6.84
2023-04-09T03:20:11.664Z,6.78
2023-04-09T03:23:38.701Z,6.74
2023-04-09T03:27:06.120Z,6.69
2023-04-09T03:30:32.878Z,6.64
2023-04-09T03:34:01.663Z,6.60
2023-04-09T03:37:29.840Z,6.58
2023-04-09T03:40:57.469Z,6.58
2023-04-09T03:44:24.158Z,6.62
2023-04-09T03:48:09.446Z,6.63
2023-04-09T03:51:36.930Z,6.64
2023-04-09T03:55:06.548Z,6.66
2023-04-09T03:58:33.131Z,6.67
2023-04-09T04:02:00.504Z,6.73
2023-04-09T04:05:28.440Z,6.78
2023-04-09T04:08:56.886Z,6.83
2023-04-09T04:12:33.196Z,6.85
2023-04-09T04:16:10.854Z,6.88
2023-04-09T04:19:38.771Z,6.85
2023-04-09T04:23:06.861Z,6.83
2023-04-09T04:26:35.552Z,6.83
2023-04-09T04:30:03.430Z,6.80
2023-04-09T04:33:37.537Z,6.77
2023-04-09T04:37:07.375Z,6.79
2023-04-09T04:40:34.189Z,6.83
2023-04-09T04:44:02.412Z,6.87
2023-04-09T04:47:29.518Z,6.89
2023-04-09T04:51:03.172Z,6.87
2023-04-09T04:54:37.188Z,6.89
2023-04-09T04:58:03.607Z,6.89
2023-04-09T05:01:38.350Z,6.87
2023-04-09T05:05:09.386Z,6.90
2023-04-09T05:08:40.769Z,6.97
2023-04-09T05:12:08.184Z,7.03
2023-04-09T05:15:41.862Z,7.08
2023-04-09T05:19:09.549Z,7.12
2023-04-09T05:22:37.566Z,7.17
2023-04-09T05:26:04.406Z,7.17
2023-04-09T05:29:43.018Z,7.21
2023-04-09T05:33:09.956Z,7.19
2023-04-09T05:36:36.684Z,7.14
2023-04-09T05:40:03.963Z,7.13
2023-04-09T05:43:31.020Z,7.13
2023-04-09T05:46:58.216Z,7.14
2023-04-09T05:50:30.403Z,7.15
2023-04-09T05:53:59.619Z,7.14
2023-04-09T05:57:33.387Z,7.18
2023-04-09T06:01:03.888Z,7.27
2023-04-09T06:04:30.475Z,7.34
2023-04-09T06:07:57.240Z,7.32
2023-04-09T06:11:24.428Z,7.39
2023-04-09T06:14:52.302Z,7.45
2023-04-09T06:18:18.506Z,7.54
2023-04-09T06:21:45.668Z,7.62
2023-04-09T06:25:12.896Z,7.60
2023-04-09T06:28:40.314Z,7.60
2023-04-09T06:32:07.107Z,7.61
2023-04-09T06:35:33.792Z,7.63
2023-04-09T06:39:01.225Z,7.63
2023-04-09T06:42:28.436Z,7.59
2023-04-09T06:45:58.648Z,7.63
2023-04-09T06:49:24.999Z,7.71
2023-04-09T06:52:52.243Z,7.77
2023-04-09T06:56:18.936Z,7.86
2023-04-09T06:59:45.892Z,7.99
2023-04-09T07:03:13.660Z,8.09
2023-04-09T07:06:40.693Z,8.15
2023-04-09T07:10:08.977Z,8.19
2023-04-09T07:13:36.989Z,8.26
2023-04-09T07:17:03.901Z,8.34
2023-04-09T07:23:57.792Z,8.33
2023-04-09T07:27:25.894Z,8.35
2023-04-09T07:30:53.033Z,8.40
2023-04-09T07:34:19.998Z,8.39
2023-04-09T07:37:46.795Z,8.37
2023-04-09T07:41:15.538Z,8.42
2023-04-09T07:44:42.027Z,8.42
2023-04-09T07:48:10.162Z,8.43
2023-04-09T07:51:37.095Z,8.50
2023-04-09T07:55:04.397Z,8.54
2023-04-09T07:58:31.163Z,8.61
2023-04-09T08:01:57.802Z,8.69
2023-04-09T08:05:25.090Z,8.78
2023-04-09T08:08:51.710Z,8.89
2023-04-09T08:12:19.086Z,8.96
2023-04-09T08:15:45.643Z,9.02
2023-04-09T08:19:13.135Z,9.00
2023-04-09T08:22:41.318Z,8.95
2023-04-09T08:26:08.743Z,8.97
2023-04-09T08:29:35.840Z,9.00
2023-04-09T08:33:02.666Z,9.05
2023-04-09T08:36:29.950Z,9.10
2023-04-09T08:39:56.648Z,9.14
2023-04-09T08:43:37.382Z,9.17
2023-04-09T08:47:14.952Z,9.21
2023-04-09T08:50:41.876Z,9.24
2023-04-09T08:54:08.814Z,9.30
2023-04-09T08:57:40.705Z,9.37
2023-04-09T09:01:19.818Z,9.44
2023-04-09T09:04:51.144Z,9.50
2023-04-09T09:08:26.997Z,9.47
2023-04-09T09:11:55.092Z,9.49
2023-04-09T09:15:32.272Z,9.47
2023-04-09T09:18:59.268Z,9.47
2023-04-09T09:22:27.113Z,9.52
2023-04-09T09:25:53.577Z,9.54
2023-04-09T09:29:21.565Z,9.56
2023-04-09T09:32:47.965Z,9.59
2023-04-09T09:36:14.998Z,9.65
2023-04-09T09:39:47.149Z,9.75
2023-04-09T09:43:14.724Z,9.84
2023-04-09T09:46:42.715Z,9.90
2023-04-09T09:50:11.103Z,9.98
2023-04-09T09:53:39.462Z,10.14
2023-04-09T09:57:09.964Z,10.29
2023-04-09T10:00:39.208Z,10.36
2023-04-09T10:04:07.510Z,10.41
2023-04-09T10:07:35.113Z,10.60
2023-04-09T10:11:02.950Z,10.83
2023-04-09T10:14:31.275Z,10.99
2023-04-09T10:17:59.128Z,11.07
2023-04-09T10:21:36.724Z,11.13
2023-04-09T10:25:04.801Z,11.30
2023-04-09T10:28:32.471Z,11.47
2023-04-09T10:32:08.157Z,11.65
2023-04-09T10:35:34.819Z,11.78
2023-04-09T10:39:01.790Z,11.85
2023-04-09T10:42:34.688Z,11.96
2023-04-09T10:46:01.154Z,12.07
2023-04-09T10:49:28.839Z,12.18
2023-04-09T10:52:58.398Z,12.34
2023-04-09T10:56:25.523Z,12.46
2023-04-09T10:59:54.352Z,12.49
2023-04-09T11:03:29.828Z,12.53
2023-04-09T11:06:58.096Z,12.56
2023-04-09T11:10:24.605Z,12.61
2023-04-09T11:13:50.913Z,12.67
2023-04-09T11:17:18.636Z,12.81
2023-04-09T11:20:46.303Z,12.90
2023-04-09T11:24:15.211Z,13.08
2023-04-09T11:27:47.113Z,13.21
2023-04-09T11:31:13.879Z,13.29
2023-04-09T11:34:41.349Z,13.38
2023-04-09T11:38:11.727Z,13.49
2023-04-09T11:41:40.643Z,13.60
2023-04-09T11:45:09.821Z,13.74
2023-04-09T11:48:36.919Z,13.88
2023-04-09T11:52:05.217Z,14.01
2023-04-09T11:55:32.578Z,14.16
2023-04-09T11:59:01.356Z,14.25
2023-04-09T12:02:28.221Z,14.37
2023-04-09T12:05:55.179Z,14.52
2023-04-09T12:09:23.288Z,14.60
2023-04-09T12:12:50.889Z,14.69
2023-04-09T12:16:21.883Z,14.80
2023-04-09T12:19:51.956Z,14.86
2023-04-09T12:23:20.641Z,14.97
2023-04-09T12:26:48.917Z,15.17
2023-04-09T12:30:15.983Z,15.44
2023-04-09T12:33:43.305Z,15.70
2023-04-09T12:37:09.862Z,15.94
2023-04-09T12:40:37.061Z,16.20
2023-04-09T12:44:05.258Z,16.45
2023-04-09T12:47:31.935Z,16.62
2023-04-09T12:50:58.971Z,16.77
2023-04-09T12:54:25.182Z,16.96
2023-04-09T12:57:53.408Z,17.16
2023-04-09T13:01:20.087Z,17.38
2023-04-09T13:04:47.361Z,17.51
2023-04-09T13:08:14.266Z,17.62
2023-04-09T13:11:41.101Z,17.76
2023-04-09T13:15:09.247Z,17.91
2023-04-09T13:18:36.467Z,18.05
2023-04-09T13:22:03.320Z,18.19
2023-04-09T13:25:30.052Z,18.33
2023-04-09T13:28:56.901Z,18.41
2023-04-09T13:32:24.746Z,18.50
2023-04-09T13:35:52.437Z,18.59
2023-04-09T13:39:18.976Z,18.71
2023-04-09T13:42:45.949Z,18.82
2023-04-09T13:46:12.642Z,18.88
2023-04-09T13:49:39.898Z,18.97
2023-04-09T13:53:06.886Z,19.04
2023-04-09T13:56:33.848Z,19.07
2023-04-09T14:00:02.265Z,19.11
2023-04-09T14:03:31.877Z,19.10
2023-04-09T14:07:00.919Z,19.12
2023-04-09T14:10:27.820Z,19.15
2023-04-09T14:13:54.385Z,19.20
2023-04-09T14:17:21.412Z,19.26
2023-04-09T14:20:48.001Z,19.27
2023-04-09T14:24:14.697Z,19.28
2023-04-09T14:27:41.942Z,19.24
2023-04-09T14:31:08.900Z,19.14
2023-04-09T14:34:35.301Z,19.10
2023-04-09T14:38:04.667Z,19.06
2023-04-09T14:41:34.483Z,18.99
2023-04-09T14:45:00.923Z,18.91
2023-04-09T14:48:27.430Z,18.78
2023-04-09T14:51:54.792Z,18.69
2023-04-09T14:55:21.380Z,18.64
2023-04-09T14:58:48.421Z,18.59
2023-04-09T15:02:15.051Z,18.50
2023-04-09T15:05:41.610Z,18.35
2023-04-09T15:09:08.335Z,18.18
2023-04-09T15:12:35.880Z,17.97
2023-04-09T15:16:02.428Z,17.76
2023-04-09T15:19:32.485Z,17.57
2023-04-09T15:22:59.403Z,17.39
2023-04-09T15:26:27.492Z,17.24
2023-04-09T15:29:54.462Z,17.09
2023-04-09T15:33:21.285Z,16.98
2023-04-09T15:36:50.748Z,16.85
2023-04-09T15:40:17.880Z,16.73
2023-04-09T15:43:44.578Z,16.59
2023-04-09T15:47:11.244Z,16.45
2023-04-09T15:50:40.194Z,16.29
2023-04-09T15:54:06.898Z,16.17
2023-04-09T15:57:33.407Z,16.02
2023-04-09T16:01:00.220Z,15.89
2023-04-09T16:04:27.864Z,15.78
2023-04-09T16:07:55.943Z,15.68
2023-04-09T16:11:23.764Z,15.55
2023-04-09T16:14:50.829Z,15.46
2023-04-09T16:18:17.404Z,15.36
2023-04-09T16:21:45.766Z,15.24
2023-04-09T16:25:13.571Z,15.13
2023-04-09T16:28:42.966Z,15.03
2023-04-09T16:32:10.535Z,14.93
2023-04-09T16:35:39.409Z,14.83
2023-04-09T16:39:07.064Z,14.72
2023-04-09T16:42:34.981Z,14.61
2023-04-09T16:46:02.906Z,14.51
2023-04-09T16:49:30.013Z,14.36
2023-04-09T16:52:56.822Z,14.23
2023-04-09T16:56:23.488Z,14.10
2023-04-09T16:59:50.061Z,13.98
2023-04-09T17:03:17.290Z,13.87
2023-04-09T17:06:44.305Z,13.73
2023-04-09T17:10:12.918Z,13.62
2023-04-09T17:13:39.777Z,13.47
2023-04-09T17:17:07.610Z,13.32
2023-04-09T17:20:35.164Z,13.20
2023-04-09T17:24:06.027Z,13.10
2023-04-09T17:27:33.571Z,13.03
2023-04-09T17:31:04.976Z,12.96
2023-04-09T17:34:32.763Z,12.87
2023-04-09T17:37:59.497Z,12.81
2023-04-09T17:41:28.042Z,12.76
2023-04-09T17:44:54.875Z,12.72
2023-04-09T17:48:22.238Z,12.63
2023-04-09T17:51:49.501Z,12.53
2023-04-09T17:55:17.960Z,12.42
2023-04-09T17:58:44.902Z,12.30
2023-04-09T18:02:12.302Z,12.20
2023-04-09T18:05:39.607Z,12.05
2023-04-09T18:09:09.536Z,11.94
2023-04-09T18:12:36.339Z,11.81
2023-04-09T18:16:03.163Z,11.67
2023-04-09T18:19:29.630Z,11.55
2023-04-09T18:22:57.266Z,11.43
2023-04-09T18:26:24.469Z,11.28
2023-04-09T18:29:51.822Z,11.15
2023-04-09T18:33:18.502Z,11.06
2023-04-09T18:36:45.515Z,10.97
2023-04-09T18:40:22.103Z,10.91
2023-04-09T18:43:49.828Z,10.86
2023-04-09T18:47:16.871Z,10.83
2023-04-09T18:50:43.585Z,10.80
2023-04-09T18:54:10.569Z,10.71
2023-04-09T18:57:38.301Z,10.66
2023-04-09T19:01:13.111Z,10.60
2023-04-09T19:04:42.263Z,10.51
2023-04-09T19:08:11.152Z,10.39
2023-04-09T19:11:38.094Z,10.31
2023-04-09T19:15:06.652Z,10.25
2023-04-09T19:18:35.456Z,10.18
2023-04-09T19:22:02.391Z,10.12
2023-04-09T19:25:34.379Z,10.08
2023-04-09T19:29:01.488Z,10.05
2023-04-09T19:32:29.029Z,10.03
2023-04-09T19:35:57.292Z,10.03
2023-04-09T19:39:25.614Z,10.03
2023-04-09T19:42:54.485Z,10.05
2023-04-09T19:46:21.298Z,10.07
2023-04-09T19:49:51.491Z,10.09
2023-04-09T19:53:18.834Z,10.08
2023-04-09T19:56:45.801Z,10.07
2023-04-09T20:00:16.181Z,10.09
2023-04-09T20:03:44.216Z,10.13
2023-04-09T20:07:11.080Z,10.12
2023-04-09T20:10:43.190Z,10.08
2023-04-09T20:14:11.450Z,10.04
2023-04-09T20:17:38.696Z,9.99
2023-04-09T20:21:06.874Z,9.92
2023-04-09T20:24:34.146Z,9.84
2023-04-09T20:28:01.567Z,9.77
2023-04-09T20:31:28.896Z,9.64
2023-04-09T20:34:56.096Z,9.54
2023-04-09T20:38:22.871Z,9.45
2023-04-09T20:41:49.903Z,9.39
2023-04-09T20:45:17.191Z,9.32
2023-04-09T20:48:45.212Z,9.27
2023-04-09T20:52:12.297Z,9.21
2023-04-09T20:55:42.026Z,9.15
2023-04-09T20:59:08.962Z,9.11
2023-04-09T21:02:37.272Z,9.08
2023-04-09T21:06:04.313Z,9.06
2023-04-09T21:09:31.935Z,9.02
2023-04-09T21:12:58.675Z,8.97
2023-04-09T21:16:27.414Z,8.90
2023-04-09T21:19:56.943Z,8.82
2023-04-09T21:23:23.774Z,8.71
2023-04-09T21:26:52.309Z,8.63
2023-04-09T21:30:19.952Z,8.55
2023-04-09T21:33:47.097Z,8.45
2023-04-09T21:37:13.493Z,8.39
2023-04-09T21:40:41.058Z,8.31
2023-04-09T21:44:09.401Z,8.22
2023-04-09T21:47:36.162Z,8.12
2023-04-09T21:51:03.603Z,8.02
2023-04-09T21:54:30.323Z,7.92
2023-04-09T21:57:57.869Z,7.83
2023-04-09T22:01:29.437Z,7.72
2023-04-09T22:04:56.957Z,7.62
2023-04-09T22:08:24.881Z,7.52
2023-04-09T22:11:51.877Z,7.43
2023-04-09T22:15:18.682Z,7.38
2023-04-09T22:18:45.121Z,7.37
2023-04-09T22:22:14.274Z,7.34
2023-04-09T22:25:40.510Z,7.34
2023-04-09T22:29:07.804Z,7.38
2023-04-09T22:32:35.030Z,7.40
2023-04-09T22:36:01.983Z,7.41
2023-04-09T22:39:29.486Z,7.42
2023-04-09T22:42:55.829Z,7.43
2023-04-09T22:46:22.745Z,7.42
2023-04-09T22:49:53.478Z,7.40
2023-04-09T22:53:20.214Z,7.38
2023-04-09T22:56:46.985Z,7.36
2023-04-09T23:00:14.717Z,7.31
2023-04-09T23:03:41.965Z,7.24
2023-04-09T23:07:10.621Z,7.17
2023-04-09T23:10:38.323Z,7.12
2023-04-09T23:14:04.912Z,7.05
2023-04-09T23:17:31.697Z,6.98
2023-04-09T23:20:58.725Z,6.89
2023-04-09T23:24:25.882Z,6.85
2023-04-09T23:27:52.454Z,6.80
2023-04-09T23:31:18.893Z,6.76
2023-04-09T23:34:45.604Z,6.73
2023-04-09T23:38:12.450Z,6.70
2023-04-09T23:41:38.882Z,6.65
2023-04-09T23:45:07.061Z,6.62
2023-04-09T23:48:33.597Z,6.58
2023-04-09T23:52:00.250Z,6.57
2023-04-09T23:55:28.124Z,6.59
2023-04-09T23:58:54.974Z,6.62
